createdAt,value
2022-08-30T00:02:20.318Z,5.00
2022-08-30T00:04:47.940Z,4.80
2022-08-30T00:07:15.725Z,5.40
2022-08-30T00:09:43.994Z,5.40
2022-08-30T00:12:11.660Z,5.80
2022-08-30T00:14:38.745Z,5.50
2022-08-30T00:17:05.751Z,5.20
2022-08-30T00:19:32.782Z,5.40
2022-08-30T00:22:00.045Z,5.00
2022-08-30T00:24:27.689Z,5.30
2022-08-30T00:26:54.398Z,5.40
2022-08-30T00:29:21.878Z,5.70
2022-08-30T00:31:48.838Z,6.00
2022-08-30T00:34:16.176Z,5.50
2022-08-30T00:36:44.480Z,5.70
2022-08-30T00:39:11.340Z,5.50
2022-08-30T00:41:38.870Z,6.00
2022-08-30T00:44:07.398Z,5.60
2022-08-30T00:46:34.432Z,4.90
2022-08-30T00:49:07.492Z,5.80
2022-08-30T00:51:35.123Z,5.60
2022-08-30T00:54:03.943Z,6.00
2022-08-30T00:56:32.636Z,5.90
2022-08-30T00:59:02.147Z,5.60
2022-08-30T01:01:30.354Z,5.10
2022-08-30T01:04:02.402Z,5.20
2022-08-30T01:06:32.766Z,5.30
2022-08-30T01:09:01.699Z,5.10
2022-08-30T01:11:30.692Z,5.80
2022-08-30T01:13:58.476Z,5.90
2022-08-30T01:16:25.912Z,5.60
2022-08-30T01:18:57.362Z,5.90
2022-08-30T01:21:33.631Z,6.20
2022-08-30T01:24:01.599Z,5.80
2022-08-30T01:26:29.975Z,5.80
2022-08-30T01:29:02.751Z,6.00
2022-08-30T01:31:29.932Z,5.60
2022-08-30T01:33:56.954Z,5.90
2022-08-30T01:36:24.538Z,5.00
2022-08-30T01:38:54.937Z,5.90
2022-08-30T01:41:35.705Z,6.20
2022-08-30T01:44:06.953Z,5.70
2022-08-30T01:46:38.302Z,5.40
2022-08-30T01:49:10.305Z,5.90
2022-08-30T01:51:38.339Z,5.70
2022-08-30T01:54:05.702Z,5.40
2022-08-30T01:56:32.696Z,5.60
2022-08-30T01:59:02.832Z,6.00
2022-08-30T02:01:32.851Z,6.00
2022-08-30T02:04:00.053Z,5.60
2022-08-30T02:06:27.603Z,5.80
2022-08-30T02:08:55.514Z,6.70
2022-08-30T02:11:22.705Z,6.60
2022-08-30T02:13:50.104Z,6.30
2022-08-30T02:16:22.103Z,6.70
2022-08-30T02:18:51.343Z,5.80
2022-08-30T02:21:18.678Z,6.30
2022-08-30T02:23:46.347Z,5.90
2022-08-30T02:26:13.721Z,6.70
2022-08-30T02:28:49.199Z,5.90
2022-08-30T02:31:21.590Z,6.40
2022-08-30T02:33:50.874Z,6.10
2022-08-30T02:36:20.218Z,6.20
2022-08-30T02:38:48.693Z,6.20
2022-08-30T02:41:16.591Z,6.90
2022-08-30T02:43:43.410Z,6.10
2022-08-30T02:46:10.735Z,6.80
2022-08-30T02:48:37.806Z,6.10
2022-08-30T02:51:09.539Z,5.40
2022-08-30T02:53:40.565Z,5.20
2022-08-30T02:56:08.079Z,6.10
2022-08-30T02:58:36.452Z,5.90
2022-08-30T03:01:05.170Z,6.40
2022-08-30T03:03:32.205Z,6.20
2022-08-30T03:05:58.898Z,5.70
2022-08-30T03:08:25.778Z,5.70
2022-08-30T03:10:52.708Z,5.10
2022-08-30T03:13:19.760Z,5.10
2022-08-30T03:15:48.531Z,6.40
2022-08-30T03:18:16.976Z,6.60
2022-08-30T03:20:53.941Z,6.90
2022-08-30T03:23:23.077Z,6.50
2022-08-30T03:25:50.049Z,7.20
2022-08-30T03:28:17.098Z,7.70
2022-08-30T03:30:44.775Z,7.30
2022-08-30T03:33:11.635Z,7.80
2022-08-30T03:35:38.552Z,6.40
2022-08-30T03:38:06.003Z,7.30
2022-08-30T03:40:32.818Z,6.70
2022-08-30T03:42:59.648Z,5.70
2022-08-30T03:45:26.781Z,4.40
2022-08-30T03:47:53.531Z,5.00
2022-08-30T03:50:20.626Z,4.80
2022-08-30T03:52:48.600Z,5.70
2022-08-30T03:55:15.533Z,5.90
2022-08-30T03:57:43.400Z,6.30
2022-08-30T04:00:12.698Z,5.50
2022-08-30T04:02:39.533Z,5.70
2022-08-30T04:05:07.820Z,5.80
2022-08-30T04:07:35.906Z,6.60
2022-08-30T04:10:05.677Z,5.90
2022-08-30T04:12:32.477Z,5.30
2022-08-30T04:14:59.394Z,5.70
2022-08-30T04:17:27.267Z,5.70
2022-08-30T04:19:54.318Z,5.20
2022-08-30T04:22:21.564Z,5.70
2022-08-30T04:24:48.408Z,5.70
2022-08-30T04:27:15.769Z,5.10
2022-08-30T04:29:43.530Z,6.70
2022-08-30T04:32:10.778Z,5.60
2022-08-30T04:34:38.042Z,5.30
2022-08-30T04:37:05.077Z,5.60
2022-08-30T04:39:32.429Z,4.70
2022-08-30T04:41:59.281Z,5.10
2022-08-30T04:44:27.038Z,5.50
2022-08-30T04:46:54.202Z,5.30
2022-08-30T04:49:22.492Z,5.20
2022-08-30T04:51:50.035Z,4.90
2022-08-30T04:54:16.974Z,5.40
2022-08-30T04:56:43.818Z,5.40
2022-08-30T04:59:10.631Z,5.80
2022-08-30T05:01:45.703Z,6.00
2022-08-30T05:04:14.692Z,6.20
2022-08-30T05:06:42.673Z,6.20
2022-08-30T05:09:09.697Z,6.00
2022-08-30T05:11:38.286Z,5.70
2022-08-30T05:14:05.434Z,5.90
2022-08-30T05:16:32.315Z,5.40
2022-08-30T05:18:59.739Z,5.60
2022-08-30T05:21:28.216Z,6.40
2022-08-30T05:23:57.498Z,6.20
2022-08-30T05:26:28.101Z,5.60
2022-08-30T05:28:55.197Z,5.70
2022-08-30T05:31:29.179Z,6.20
2022-08-30T05:33:56.490Z,6.90
2022-08-30T05:36:26.497Z,5.70
2022-08-30T05:38:54.857Z,5.90
2022-08-30T05:41:26.579Z,5.80
2022-08-30T05:43:56.649Z,5.80
2022-08-30T05:46:25.544Z,5.10
2022-08-30T05:48:52.582Z,5.70
2022-08-30T05:51:23.183Z,5.50
2022-08-30T05:53:52.911Z,5.10
2022-08-30T05:56:25.270Z,5.10
2022-08-30T05:58:54.080Z,4.60
2022-08-30T06:01:29.582Z,4.60
2022-08-30T06:04:03.672Z,5.80
2022-08-30T06:06:38.790Z,6.50
2022-08-30T06:09:09.260Z,5.00
2022-08-30T06:11:36.963Z,5.00
2022-08-30T06:14:05.069Z,6.50
2022-08-30T06:16:33.888Z,6.10
2022-08-30T06:19:01.566Z,7.10
2022-08-30T06:21:32.133Z,6.90
2022-08-30T06:23:59.697Z,6.40
2022-08-30T06:26:28.353Z,7.10
2022-08-30T06:28:57.261Z,6.10
2022-08-30T06:31:26.482Z,6.70
2022-08-30T06:33:55.006Z,6.50
2022-08-30T06:36:25.498Z,6.30
2022-08-30T06:38:55.278Z,6.80
2022-08-30T06:41:26.519Z,5.90
2022-08-30T06:43:55.218Z,6.70
2022-08-30T06:46:32.233Z,6.00
2022-08-30T06:49:00.270Z,5.90
2022-08-30T06:51:34.420Z,6.80
2022-08-30T06:54:03.677Z,4.80
2022-08-30T06:56:31.225Z,4.90
2022-08-30T06:58:58.201Z,6.00
2022-08-30T07:01:29.168Z,6.60
2022-08-30T07:03:58.106Z,5.90
2022-08-30T07:06:27.217Z,6.30
2022-08-30T07:08:56.043Z,4.90
2022-08-30T07:11:35.600Z,6.90
2022-08-30T07:14:04.546Z,5.90
2022-08-30T07:16:32.942Z,5.60
2022-08-30T07:19:02.758Z,5.70
2022-08-30T07:21:50.598Z,5.80
2022-08-30T07:24:20.061Z,6.50
2022-08-30T07:26:51.345Z,5.80
2022-08-30T07:29:21.003Z,5.70
2022-08-30T07:31:48.503Z,4.60
2022-08-30T07:34:15.517Z,6.10
2022-08-30T07:36:42.890Z,6.10
2022-08-30T07:39:10.646Z,5.70
2022-08-30T07:41:39.232Z,6.20
2022-08-30T07:44:08.575Z,6.60
2022-08-30T07:46:41.205Z,5.10
2022-08-30T07:49:10.820Z,4.80
2022-08-30T07:51:39.814Z,5.50
2022-08-30T07:54:07.581Z,3.90
2022-08-30T07:56:36.155Z,6.20
2022-08-30T07:59:04.341Z,4.10
2022-08-30T08:01:32.083Z,4.80
2022-08-30T08:04:00.260Z,4.80
2022-08-30T08:06:27.707Z,5.80
2022-08-30T08:09:02.510Z,6.00
2022-08-30T08:11:33.933Z,5.40
2022-08-30T08:14:02.226Z,5.30
2022-08-30T08:16:32.500Z,4.30
2022-08-30T08:19:00.373Z,4.90
2022-08-30T08:21:28.355Z,5.30
2022-08-30T08:23:55.601Z,5.30
2022-08-30T08:26:23.147Z,4.40
2022-08-30T08:28:50.411Z,4.70
2022-08-30T08:31:31.441Z,3.50
2022-08-30T08:34:05.055Z,3.70
2022-08-30T08:36:37.203Z,3.50
2022-08-30T08:39:10.444Z,3.60
2022-08-30T08:42:05.061Z,3.60
2022-08-30T08:45:11.692Z,3.90
2022-08-30T08:48:09.336Z,4.30
2022-08-30T08:51:00.696Z,4.10
2022-08-30T08:53:49.908Z,3.20
2022-08-30T08:56:19.338Z,4.50
2022-08-30T08:58:51.224Z,3.90
2022-08-30T09:01:22.064Z,4.70
2022-08-30T09:03:53.257Z,3.60
2022-08-30T09:06:51.230Z,3.90
2022-08-30T09:09:53.343Z,3.90
2022-08-30T09:12:25.178Z,3.80
2022-08-30T09:14:59.973Z,3.80
2022-08-30T09:17:29.741Z,4.30
2022-08-30T09:20:00.971Z,4.40
2022-08-30T09:22:36.803Z,3.30
2022-08-30T09:25:07.372Z,3.20
2022-08-30T09:27:47.064Z,3.30
2022-08-30T09:30:24.365Z,3.80
2022-08-30T09:32:58.624Z,3.20
2022-08-30T09:35:35.678Z,3.40
2022-08-30T09:38:25.668Z,3.30
2022-08-30T09:40:59.511Z,2.90
2022-08-30T09:43:30.147Z,2.80
2022-08-30T09:46:00.444Z,4.00
2022-08-30T09:48:43.202Z,2.60
2022-08-30T09:51:12.261Z,3.20
2022-08-30T09:54:01.116Z,2.80
2022-08-30T09:57:12.678Z,2.90
2022-08-30T09:59:51.748Z,4.20
2022-08-30T10:02:42.773Z,3.50
2022-08-30T10:05:36.165Z,3.10
2022-08-30T10:08:12.660Z,2.80
2022-08-30T10:10:48.553Z,3.10
2022-08-30T10:13:45.091Z,2.30
2022-08-30T10:16:12.179Z,2.70
2022-08-30T10:18:52.704Z,2.90
2022-08-30T10:21:40.229Z,3.10
2022-08-30T10:24:09.725Z,3.10
2022-08-30T10:26:57.155Z,2.30
2022-08-30T10:29:41.867Z,2.20
2022-08-30T10:32:42.293Z,2.40
2022-08-30T10:35:19.472Z,1.90
2022-08-30T10:38:10.453Z,2.00
2022-08-30T10:41:02.793Z,2.20
2022-08-30T10:43:38.565Z,2.80
2022-08-30T10:46:13.674Z,3.20
2022-08-30T10:48:47.473Z,2.70
2022-08-30T10:51:24.898Z,2.70
2022-08-30T10:54:18.448Z,2.40
2022-08-30T10:56:51.131Z,2.70
2022-08-30T10:59:20.113Z,2.40
2022-08-30T11:01:53.333Z,2.30
2022-08-30T11:04:45.553Z,2.60
2022-08-30T11:07:31.326Z,2.40
2022-08-30T11:10:24.596Z,2.50
2022-08-30T11:13:10.507Z,2.20
2022-08-30T11:15:56.884Z,2.20
2022-08-30T11:18:28.421Z,1.80
2022-08-30T11:21:22.031Z,2.50
2022-08-30T11:24:11.774Z,2.40
2022-08-30T11:26:51.484Z,2.50
2022-08-30T11:29:38.673Z,2.60
2022-08-30T11:32:13.111Z,2.60
2022-08-30T11:34:46.430Z,2.10
2022-08-30T11:37:36.890Z,2.40
2022-08-30T11:40:19.069Z,2.10
2022-08-30T11:42:49.495Z,2.90
2022-08-30T11:45:24.873Z,2.60
2022-08-30T11:48:20.960Z,2.60
2022-08-30T11:50:57.235Z,2.30
2022-08-30T11:53:36.875Z,2.10
2022-08-30T11:56:20.911Z,2.10
2022-08-30T11:59:07.417Z,2.10
2022-08-30T12:01:50.862Z,2.30
2022-08-30T12:04:19.443Z,2.40
2022-08-30T12:07:03.929Z,2.60
2022-08-30T12:09:37.486Z,2.40
2022-08-30T12:12:10.604Z,2.50
2022-08-30T12:14:52.180Z,2.30
2022-08-30T12:17:45.949Z,2.30
2022-08-30T12:20:22.462Z,2.50
2022-08-30T12:22:51.207Z,2.60
2022-08-30T12:25:29.008Z,2.40
2022-08-30T12:28:21.560Z,2.50
2022-08-30T12:30:52.085Z,2.60
2022-08-30T12:33:41.331Z,2.30
2022-08-30T12:36:30.612Z,2.40
2022-08-30T12:39:17.980Z,2.20
2022-08-30T12:41:45.791Z,2.70
2022-08-30T12:44:20.752Z,2.70
2022-08-30T12:46:55.976Z,1.80
2022-08-30T12:49:29.569Z,2.40
2022-08-30T12:52:20.392Z,2.20
2022-08-30T12:54:47.846Z,1.90
2022-08-30T12:57:39.046Z,2.30
2022-08-30T13:00:09.906Z,2.80
2022-08-30T13:02:52.266Z,2.70
2022-08-30T13:05:35.735Z,2.20
2022-08-30T13:08:30.931Z,2.60
2022-08-30T13:11:10.486Z,2.40
2022-08-30T13:13:52.360Z,3.00
2022-08-30T13:16:36.582Z,1.80
2022-08-30T13:19:27.326Z,2.40
2022-08-30T13:21:58.107Z,2.40
2022-08-30T13:24:25.795Z,2.20
2022-08-30T13:26:55.946Z,2.70
2022-08-30T13:29:27.604Z,2.40
2022-08-30T13:31:56.659Z,2.60
2022-08-30T13:34:24.355Z,1.90
2022-08-30T13:36:57.345Z,2.60
2022-08-30T13:39:24.701Z,2.60
2022-08-30T13:41:52.208Z,2.30
2022-08-30T13:44:19.809Z,2.40
2022-08-30T13:47:32.225Z,2.70
2022-08-30T13:49:44.961Z,2.20
2022-08-30T13:52:22.020Z,2.30
2022-08-30T13:54:56.151Z,2.70
2022-08-30T14:00:18.498Z,2.70
2022-08-30T14:02:53.837Z,2.30
2022-08-30T14:05:47.696Z,2.70
2022-08-30T14:11:03.530Z,2.10
2022-08-30T14:13:31.491Z,2.80
2022-08-30T14:18:50.067Z,2.30
2022-08-30T14:21:21.423Z,2.30
2022-08-30T14:23:57.665Z,2.70
2022-08-30T14:26:35.813Z,1.80
2022-08-30T14:29:06.157Z,1.80
2022-08-30T14:31:39.031Z,1.90
2022-08-30T14:34:08.257Z,2.00
2022-08-30T14:36:38.628Z,2.60
2022-08-30T14:39:09.696Z,2.20
2022-08-30T14:41:43.895Z,2.20
2022-08-30T14:44:13.483Z,2.30
2022-08-30T14:46:41.563Z,2.00
2022-08-30T14:49:11.358Z,2.20
2022-08-30T14:51:39.216Z,2.40
2022-08-30T14:54:06.555Z,2.40
2022-08-30T14:56:33.638Z,2.50
2022-08-30T14:59:02.630Z,2.70
2022-08-30T15:01:31.726Z,2.30
2022-08-30T15:04:04.034Z,2.30
2022-08-30T15:06:37.320Z,2.50
2022-08-30T15:09:07.666Z,2.30
2022-08-30T15:11:38.039Z,2.30
2022-08-30T15:14:07.264Z,2.10
2022-08-30T15:16:37.002Z,1.90
2022-08-30T15:19:09.093Z,2.10
2022-08-30T15:21:47.626Z,1.90
2022-08-30T15:24:20.008Z,1.60
2022-08-30T15:26:55.680Z,1.80
2022-08-30T15:29:24.339Z,1.80
2022-08-30T15:31:52.346Z,1.60
2022-08-30T15:34:27.987Z,2.00
2022-08-30T15:36:57.337Z,2.00
2022-08-30T15:39:24.946Z,1.90
2022-08-30T15:41:58.652Z,1.80
2022-08-30T15:44:32.067Z,1.80
2022-08-30T15:46:59.838Z,1.80
2022-08-30T15:49:27.968Z,2.10
2022-08-30T15:52:00.819Z,2.00
2022-08-30T15:54:31.411Z,2.00
2022-08-30T15:57:02.860Z,2.00
2022-08-30T15:59:35.084Z,1.90
2022-08-30T16:02:05.851Z,2.10
2022-08-30T16:04:34.218Z,1.90
2022-08-30T16:07:01.461Z,1.90
2022-08-30T16:09:29.858Z,2.00
2022-08-30T16:12:01.398Z,2.00
2022-08-30T16:14:29.158Z,1.90
2022-08-30T16:16:57.555Z,1.90
2022-08-30T16:19:25.414Z,1.80
2022-08-30T16:21:52.750Z,2.00
2022-08-30T16:24:22.831Z,2.10
2022-08-30T16:26:50.559Z,2.50
2022-08-30T16:29:18.012Z,2.60
2022-08-30T16:31:47.682Z,2.40
2022-08-30T16:34:20.227Z,2.80
2022-08-30T16:36:47.846Z,2.50
2022-08-30T16:39:16.202Z,2.60
2022-08-30T16:41:45.227Z,2.40
2022-08-30T16:44:13.289Z,2.50
2022-08-30T16:46:43.039Z,2.60
2022-08-30T16:49:19.467Z,2.60
2022-08-30T16:51:46.919Z,2.80
2022-08-30T16:54:14.154Z,2.60
2022-08-30T16:56:42.161Z,2.70
2022-08-30T16:59:11.345Z,2.60
2022-08-30T17:01:40.517Z,2.30
2022-08-30T17:04:09.163Z,2.60
2022-08-30T17:06:38.164Z,2.70
2022-08-30T17:09:08.450Z,2.60
2022-08-30T17:11:38.242Z,2.40
2022-08-30T17:14:08.492Z,2.70
2022-08-30T17:16:37.216Z,2.50
2022-08-30T17:19:06.399Z,2.30
2022-08-30T17:21:55.137Z,2.60
2022-08-30T17:24:23.265Z,2.60
2022-08-30T17:26:51.925Z,2.50
2022-08-30T17:29:18.859Z,2.20
2022-08-30T17:31:51.175Z,2.30
2022-08-30T17:34:21.931Z,2.40
2022-08-30T17:36:52.832Z,2.30
2022-08-30T17:39:23.598Z,2.50
2022-08-30T17:41:52.686Z,2.50
2022-08-30T17:44:28.060Z,2.60
2022-08-30T17:46:57.602Z,2.40
2022-08-30T17:49:26.451Z,2.90
2022-08-30T17:51:56.879Z,2.80
2022-08-30T17:54:27.367Z,2.40
2022-08-30T17:56:58.171Z,2.40
2022-08-30T17:59:27.038Z,2.90
2022-08-30T18:02:01.519Z,2.70
2022-08-30T18:04:29.430Z,2.20
2022-08-30T18:06:59.726Z,2.20
2022-08-30T18:09:33.901Z,2.60
2022-08-30T18:12:02.868Z,2.50
2022-08-30T18:14:30.202Z,2.80
2022-08-30T18:16:57.568Z,2.90
2022-08-30T18:19:27.448Z,2.80
2022-08-30T18:21:55.456Z,2.60
2022-08-30T18:24:23.956Z,2.80
2022-08-30T18:26:57.849Z,2.50
2022-08-30T18:29:29.446Z,2.40
2022-08-30T18:32:01.879Z,2.50
2022-08-30T18:34:30.444Z,2.80
2022-08-30T18:36:57.513Z,2.60
2022-08-30T18:39:25.057Z,1.90
2022-08-30T18:41:54.631Z,2.40
2022-08-30T18:44:28.360Z,2.80
2022-08-30T18:46:58.084Z,2.50
2022-08-30T18:49:32.590Z,2.90
2022-08-30T18:52:01.959Z,2.20
2022-08-30T18:54:30.487Z,2.20
2022-08-30T18:56:57.853Z,2.30
2022-08-30T18:59:35.607Z,2.80
2022-08-30T19:02:07.839Z,2.80
2022-08-30T19:04:38.656Z,3.00
2022-08-30T19:07:08.458Z,2.80
2022-08-30T19:09:36.936Z,3.00
2022-08-30T19:12:09.658Z,2.90
2022-08-30T19:14:39.656Z,3.30
2022-08-30T19:17:07.597Z,2.30
2022-08-30T19:19:46.219Z,2.50
2022-08-30T19:22:19.301Z,2.70
2022-08-30T19:24:52.799Z,2.90
2022-08-30T19:27:38.056Z,2.60
2022-08-30T19:30:16.196Z,2.50
2022-08-30T19:32:48.472Z,2.80
2022-08-30T19:35:16.240Z,2.20
2022-08-30T19:37:46.243Z,2.40
2022-08-30T19:40:17.229Z,2.40
2022-08-30T19:42:46.387Z,2.50
2022-08-30T19:45:21.544Z,2.60
2022-08-30T19:47:51.871Z,2.70
2022-08-30T19:50:21.941Z,2.20
2022-08-30T19:52:54.977Z,2.20
2022-08-30T19:55:28.624Z,2.40
2022-08-30T19:57:58.075Z,2.30
2022-08-30T20:00:26.850Z,2.40
2022-08-30T20:02:59.760Z,2.60
2022-08-30T20:05:32.793Z,2.40
2022-08-30T20:08:00.688Z,2.00
2022-08-30T20:10:28.865Z,2.20
2022-08-30T20:12:56.329Z,2.50
2022-08-30T20:15:25.522Z,2.20
2022-08-30T20:18:05.176Z,2.30
2022-08-30T20:20:36.330Z,2.00
2022-08-30T20:23:06.343Z,2.20
2022-08-30T20:25:34.719Z,2.20
2022-08-30T20:28:03.623Z,2.50
2022-08-30T20:30:34.447Z,1.90
2022-08-30T20:33:08.465Z,2.40
2022-08-30T20:35:38.262Z,2.40
2022-08-30T20:38:06.457Z,2.70
2022-08-30T20:40:37.363Z,2.20
2022-08-30T20:43:05.854Z,2.30
2022-08-30T20:45:34.320Z,2.20
2022-08-30T20:48:03.891Z,2.30
2022-08-30T20:50:33.128Z,2.20
2022-08-30T20:53:01.347Z,2.40
2022-08-30T20:55:28.845Z,2.30
2022-08-30T20:57:57.148Z,2.40
2022-08-30T21:00:24.409Z,2.20
2022-08-30T21:02:53.604Z,2.30
2022-08-30T21:05:20.483Z,2.40
2022-08-30T21:07:47.469Z,2.20
2022-08-30T21:10:21.227Z,2.50
2022-08-30T21:12:51.300Z,2.40
2022-08-30T21:15:36.688Z,2.20
2022-08-30T21:18:05.041Z,2.70
2022-08-30T21:20:32.373Z,2.40
2022-08-30T21:22:59.240Z,2.40
2022-08-30T21:25:26.407Z,2.40
2022-08-30T21:27:54.567Z,2.60
2022-08-30T21:30:21.506Z,2.60
2022-08-30T21:32:49.404Z,2.60
2022-08-30T21:35:35.891Z,2.40
2022-08-30T21:38:06.113Z,2.60
2022-08-30T21:40:33.686Z,2.90
2022-08-30T21:43:05.566Z,2.90
2022-08-30T21:45:41.113Z,2.40
2022-08-30T21:48:10.965Z,2.60
2022-08-30T21:50:40.910Z,2.50
2022-08-30T21:53:10.238Z,2.50
2022-08-30T21:55:37.631Z,2.50
2022-08-30T21:58:04.688Z,2.90
2022-08-30T22:00:33.159Z,2.50
2022-08-30T22:03:00.356Z,2.50
2022-08-30T22:05:31.160Z,2.40
2022-08-30T22:08:06.968Z,2.70
2022-08-30T22:10:37.751Z,2.80
2022-08-30T22:13:24.609Z,2.50
2022-08-30T22:16:10.028Z,2.60
2022-08-30T22:18:43.410Z,2.50
2022-08-30T22:21:13.500Z,2.70
2022-08-30T22:23:41.086Z,2.50
2022-08-30T22:26:14.583Z,2.90
2022-08-30T22:29:23.781Z,2.70
2022-08-30T22:31:51.777Z,2.90
2022-08-30T22:34:35.043Z,2.50
2022-08-30T22:37:08.758Z,2.50
2022-08-30T22:39:38.962Z,3.00
2022-08-30T22:42:15.753Z,2.60
2022-08-30T22:44:51.480Z,2.80
2022-08-30T22:47:18.707Z,2.80
2022-08-30T22:49:45.750Z,2.60
2022-08-30T22:52:13.950Z,2.60
2022-08-30T22:54:40.664Z,2.70
2022-08-30T22:57:07.613Z,2.90
2022-08-30T22:59:35.587Z,2.90
2022-08-30T23:02:02.667Z,2.60
2022-08-30T23:04:30.286Z,2.70
2022-08-30T23:06:57.136Z,2.60
2022-08-30T23:09:23.917Z,2.80
2022-08-30T23:11:50.672Z,2.80
2022-08-30T23:14:19.805Z,2.70
2022-08-30T23:16:49.585Z,2.70
2022-08-30T23:19:16.775Z,2.50
2022-08-30T23:21:46.809Z,2.80
2022-08-30T23:24:34.009Z,2.80
2022-08-30T23:27:25.583Z,2.40
2022-08-30T23:30:15.348Z,3.10
2022-08-30T23:33:03.462Z,3.20
2022-08-30T23:35:52.561Z,2.80
2022-08-30T23:38:42.219Z,2.60
2022-08-30T23:41:33.805Z,2.90
2022-08-30T23:44:22.903Z,2.40
2022-08-30T23:47:14.876Z,2.60
2022-08-30T23:50:06.773Z,2.60
2022-08-30T23:52:58.303Z,3.00
2022-08-30T23:55:45.930Z,2.50
2022-08-30T23:58:33.864Z,2.60
